TimeEDT,TemperatureF,Dew PointF,Humidity,Sea Level PressureIn,VisibilityMPH,Wind Direction,Wind SpeedMPH,Gust SpeedMPH,PrecipitationIn,Events,Conditions,WindDirDegrees,DateUTC
12:53 AM,64.0,52.0,65,30.22,10.0,ENE,9.2,-,N/A,,Overcast,60,2013-09-28 04:53:00
1:53 AM,63.0,52.0,67,30.22,10.0,NE,5.8,-,N/A,,Scattered Clouds,40,2013-09-28 05:53:00
2:53 AM,64.0,53.1,67,30.20,10.0,NE,8.1,-,N/A,,Overcast,50,2013-09-28 06:53:00
3:53 AM,64.9,54.0,68,30.19,10.0,NE,11.5,-,N/A,,Overcast,40,2013-09-28 07:53:00
4:53 AM,64.9,55.0,70,30.20,10.0,NE,10.4,-,N/A,,Overcast,50,2013-09-28 08:53:00
5:53 AM,64.0,57.9,80,30.21,10.0,ENE,8.1,-,N/A,,Overcast,70,2013-09-28 09:53:00
6:25 AM,64.4,55.4,73,30.22,10.0,NE,8.1,18.4,N/A,,Overcast,40,2013-09-28 10:25:00
6:53 AM,64.9,55.0,70,30.23,10.0,NE,8.1,-,N/A,,Overcast,50,2013-09-28 10:53:00
7:53 AM,64.9,55.0,70,30.24,10.0,NE,11.5,17.3,N/A,,Overcast,40,2013-09-28 11:53:00
8:13 AM,64.4,55.4,73,30.24,10.0,NE,10.4,-,N/A,,Overcast,50,2013-09-28 12:13:00
8:39 AM,66.2,55.4,68,30.25,10.0,NE,8.1,19.6,N/A,,Overcast,50,2013-09-28 12:39:00
8:53 AM,64.9,55.9,73,30.25,10.0,NE,12.7,19.6,N/A,,Overcast,40,2013-09-28 12:53:00
9:03 AM,66.2,55.4,68,30.25,10.0,NE,10.4,19.6,N/A,,Overcast,50,2013-09-28 13:03:00
9:31 AM,66.2,55.4,68,30.26,10.0,NE,11.5,20.7,N/A,,Overcast,50,2013-09-28 13:31:00
9:53 AM,66.9,55.0,66,30.27,10.0,ENE,15.0,23.0,N/A,,Overcast,60,2013-09-28 13:53:00
10:53 AM,68.0,55.9,65,30.28,10.0,NE,12.7,21.9,N/A,,Partly Cloudy,40,2013-09-28 14:53:00
11:53 AM,66.9,55.9,68,30.27,10.0,ENE,11.5,19.6,N/A,,Overcast,60,2013-09-28 15:53:00
12:53 PM,69.1,55.0,61,30.27,10.0,NE,16.1,24.2,N/A,,Mostly Cloudy,40,2013-09-28 16:53:00
1:53 PM,69.1,53.1,57,30.25,10.0,ENE,15.0,-,N/A,,Clear,60,2013-09-28 17:53:00
2:53 PM,69.1,55.0,61,30.24,10.0,ENE,12.7,19.6,N/A,,Partly Cloudy,60,2013-09-28 18:53:00
3:36 PM,66.2,55.4,68,30.23,10.0,ENE,13.8,20.7,N/A,,Mostly Cloudy,60,2013-09-28 19:36:00
3:43 PM,68.0,55.4,64,30.23,10.0,ENE,12.7,19.6,N/A,,Scattered Clouds,60,2013-09-28 19:43:00
3:53 PM,66.9,55.0,66,30.23,10.0,ENE,11.5,19.6,N/A,,Scattered Clouds,70,2013-09-28 19:53:00
4:53 PM,66.0,54.0,65,30.23,10.0,NE,11.5,17.3,N/A,,Mostly Cloudy,50,2013-09-28 20:53:00
5:53 PM,64.9,54.0,68,30.23,10.0,NE,10.4,-,N/A,,Mostly Cloudy,40,2013-09-28 21:53:00
6:53 PM,64.9,55.0,70,30.23,10.0,NE,12.7,17.3,N/A,,Overcast,50,2013-09-28 22:53:00
7:53 PM,64.0,55.0,73,30.22,10.0,NE,6.9,-,N/A,,Mostly Cloudy,50,2013-09-28 23:53:00
8:01 PM,64.4,55.4,73,30.22,10.0,NE,6.9,-,N/A,,Mostly Cloudy,50,2013-09-29 00:01:00
8:53 PM,64.0,55.9,75,30.22,10.0,ENE,9.2,-,N/A,,Scattered Clouds,60,2013-09-29 00:53:00
9:39 PM,64.4,57.2,77,30.22,10.0,ENE,9.2,-,N/A,,Mostly Cloudy,60,2013-09-29 01:39:00
9:53 PM,64.9,57.0,75,30.22,10.0,NE,5.8,-,N/A,,Overcast,50,2013-09-29 01:53:00
10:06 PM,64.4,57.2,77,30.21,10.0,NE,5.8,-,N/A,,Mostly Cloudy,50,2013-09-29 02:06:00
10:39 PM,64.4,57.2,77,30.21,10.0,ENE,5.8,-,N/A,,Mostly Cloudy,60,2013-09-29 02:39:00
10:53 PM,64.9,57.9,78,30.20,10.0,NE,8.1,-,N/A,,Overcast,50,2013-09-29 02:53:00
11:03 PM,64.4,57.2,77,30.20,10.0,NE,8.1,-,N/A,,Overcast,50,2013-09-29 03:03:00
11:53 PM,64.9,57.9,78,30.19,10.0,ENE,9.2,-,N/A,,Mostly Cloudy,60,2013-09-29 03:53:00